logo
Rechercher aéroport 
image banner adimage banner adimage banner ad
image banner ad

MRHO - Hacienda Rio Cuarto

Situé à Sarapiqui, Costa Rica

ICAO - MRHO, IATA -

Données fournies par Airmate  

Information générale

Coordonnées: N10°33'60" W84°9'0"
Élévation : 197 feet MSL.
 
Voir autres Aéroports à Heredia

Données opérationnelles

Special qualification required
Heure actuelle UTC:
Heure actuelle locale:
Météo à : MROC - Juan Santamaria Intl ( 64 km )
METAR: MROC 222300Z 10004KT 060V130 9999 FEW030 BKN140 26/19 A3002 NOSIG
TAF: MROC 222345Z 2300/2324 11007KT 9999 FEW030 TX31/2319Z TN20/2311Z TEMPO 2300/2303 22004KT BKN015 BECMG 2317/2320 25008KT TEMPO 2319/2323 TSRA FEW015CB
Voir NOTAMs / SUP AIP / TFR affectant cet aéroport [VIEW]
Fréquences de communication: [VIEW]

Pistes:

Identifiant RWYQFULongueur (ft)Largeur (ft)SurfaceLDA (ft)
0200UNK
2000UNK

Coordonnées de l'aéroport

Adresse: Sarapiqui Costa Rica

Vue satellite de MRHO